Time;durP1;ratioP1;P1;durP2;ratioP2;P2;SDS_P1;SDS_P2;PMS_P1;PMS_P2;Temp;Humidity;BMP_temperature;BMP_pressure;BME280_temperature;BME280_humidity;BME280_pressure;Samples;Min_cycle;Max_cycle;Signal;HPM_P1;HPM_P2
2021/03/14 00:00:36;;;;;;;2.33;1.10;;;6.50;76.80;;;;;;5008260;28;20513;-39
2021/03/14 00:03:04;;;;;;;2.40;1.57;;;6.50;77.20;;;;;;5024093;28;20793;-39
2021/03/14 00:05:31;;;;;;;1.50;1.30;;;6.50;77.40;;;;;;5044056;28;20450;-39
2021/03/14 00:07:58;;;;;;;2.93;1.23;;;6.50;77.50;;;;;;5024546;28;20466;-39
2021/03/14 00:10:25;;;;;;;3.30;1.60;;;6.50;77.70;;;;;;5027729;28;20478;-40
2021/03/14 00:12:51;;;;;;;5.43;1.40;;;6.50;77.30;;;;;;5011073;28;20475;-39
2021/03/14 00:15:20;;;;;;;6.07;1.30;;;6.50;77.00;;;;;;4992641;28;20501;-39
2021/03/14 00:18:07;;;;;;;6.57;1.30;;;6.50;77.10;;;;;;5028030;28;20455;-39
2021/03/14 00:20:34;;;;;;;4.70;1.50;;;6.60;77.20;;;;;;5013012;28;20478;-39
2021/03/14 00:23:01;;;;;;;3.27;1.40;;;6.60;77.10;;;;;;5026010;28;20818;-39
2021/03/14 00:25:27;;;;;;;6.03;1.73;;;6.60;76.30;;;;;;5010109;28;20542;-39
2021/03/14 00:27:58;;;;;;;3.30;1.90;;;6.50;76.10;;;;;;5028370;28;20462;-39
2021/03/14 00:30:27;;;;;;;1.43;1.33;;;6.40;76.60;;;;;;5025172;28;20865;-39
2021/03/14 00:32:54;;;;;;;3.00;1.60;;;6.40;76.90;;;;;;5028696;28;20932;-39
2021/03/14 00:35:21;;;;;;;4.00;2.10;;;6.40;77.20;;;;;;5027603;28;20866;-39
2021/03/14 00:37:48;;;;;;;3.83;1.33;;;6.30;77.60;;;;;;5008639;28;20495;-39
2021/03/14 00:40:22;;;;;;;2.60;1.67;;;6.40;77.80;;;;;;5005570;28;20991;-39
2021/03/14 00:42:49;;;;;;;2.63;1.13;;;6.40;77.80;;;;;;5026364;28;20790;-39
2021/03/14 00:45:32;;;;;;;9.63;3.10;;;6.40;77.60;;;;;;5012166;28;20483;-40
2021/03/14 00:48:01;;;;;;;3.63;1.80;;;6.40;77.60;;;;;;5010367;28;20811;-39
2021/03/14 00:50:30;;;;;;;2.10;1.27;;;6.40;77.70;;;;;;5026305;28;20535;-39
2021/03/14 00:52:56;;;;;;;3.20;1.50;;;6.40;77.40;;;;;;5007551;28;20466;-39
2021/03/14 00:55:26;;;;;;;5.10;1.60;;;6.40;77.40;;;;;;5025329;28;20498;-39
2021/03/14 00:57:53;;;;;;;4.87;1.30;;;6.40;77.70;;;;;;5010677;28;20538;-39
2021/03/14 01:00:19;;;;;;;3.03;1.00;;;6.40;77.80;;;;;;5008447;28;20509;-39
2021/03/14 01:02:46;;;;;;;7.43;1.97;;;6.40;77.50;;;;;;5040766;28;20455;-41
2021/03/14 01:05:12;;;;;;;5.23;1.53;;;6.40;77.60;;;;;;5024271;28;20455;-41
2021/03/14 01:07:41;;;;;;;6.00;1.43;;;6.40;77.60;;;;;;5026444;28;20999;-40
2021/03/14 01:10:09;;;;;;;2.60;1.33;;;6.50;77.40;;;;;;5026832;28;20462;-41
2021/03/14 01:12:37;;;;;;;2.40;1.20;;;6.50;77.10;;;;;;5008588;28;20514;-41
2021/03/14 01:15:10;;;;;;;3.87;1.37;;;6.50;77.00;;;;;;5026666;28;20538;-41
2021/03/14 01:17:39;;;;;;;3.00;1.40;;;6.40;77.20;;;;;;5025147;28;20497;-41
2021/03/14 01:20:09;;;;;;;17.50;8.10;;;6.40;77.20;;;;;;5030053;28;20436;-41
2021/03/14 01:22:37;;;;;;;7.13;4.13;;;6.40;77.00;;;;;;5024352;28;20550;-41
2021/03/14 01:25:07;;;;;;;3.60;1.60;;;6.30;77.40;;;;;;5008900;28;20452;-41
2021/03/14 01:27:34;;;;;;;5.90;1.40;;;6.30;77.40;;;;;;5024240;28;20456;-41
2021/03/14 01:30:00;;;;;;;4.60;1.53;;;6.30;77.70;;;;;;5006255;28;20451;-41
2021/03/14 01:32:26;;;;;;;2.33;1.47;;;6.30;77.70;;;;;;5026254;28;20489;-41
2021/03/14 01:34:53;;;;;;;3.90;1.40;;;6.30;77.70;;;;;;5026090;28;21011;-41
2021/03/14 01:37:24;;;;;;;2.40;1.83;;;6.30;77.90;;;;;;5027678;28;20483;-41
2021/03/14 01:39:50;;;;;;;2.17;1.97;;;6.30;78.00;;;;;;5006998;28;20451;-41
2021/03/14 01:42:30;;;;;;;13.00;1.53;;;6.30;77.40;;;;;;5025599;28;20483;-41
2021/03/14 01:45:01;;;;;;;1.47;1.20;;;6.30;77.40;;;;;;5012479;28;20483;-41
2021/03/14 01:47:34;;;;;;;5.47;2.80;;;6.30;77.60;;;;;;5025294;28;20534;-41
2021/03/14 01:50:20;;;;;;;3.20;1.53;;;6.30;77.70;;;;;;5024893;28;21010;-40
2021/03/14 01:52:46;;;;;;;2.80;1.33;;;6.20;77.90;;;;;;5028374;28;20505;-41
2021/03/14 01:55:14;;;;;;;6.23;1.73;;;6.30;78.00;;;;;;5025915;28;20534;-41
2021/03/14 01:57:41;;;;;;;5.60;1.50;;;6.20;77.90;;;;;;5006192;28;20963;-41
2021/03/14 02:00:11;;;;;;;1.40;1.30;;;6.20;78.20;;;;;;5024205;28;20551;-41
2021/03/14 02:02:48;;;;;;;1.43;1.33;;;6.20;78.10;;;;;;5025952;28;20484;-41
2021/03/14 02:05:18;;;;;;;2.93;1.57;;;6.20;78.20;;;;;;5005708;28;20505;-38
2021/03/14 02:07:48;;;;;;;3.67;1.33;;;6.20;78.60;;;;;;5023406;28;20487;-39
2021/03/14 02:10:19;;;;;;;2.23;1.23;;;6.20;78.60;;;;;;5022049;28;20522;-39
2021/03/14 02:13:00;;;;;;;2.37;1.60;;;6.10;78.60;;;;;;5024004;28;20554;-39
2021/03/14 02:15:27;;;;;;;3.33;2.00;;;6.10;78.30;;;;;;5026639;28;20978;-39
2021/03/14 02:17:56;;;;;;;7.90;2.07;;;6.20;78.30;;;;;;5023904;28;20491;-39
2021/03/14 02:20:28;;;;;;;2.30;1.40;;;6.20;78.60;;;;;;5030583;28;20447;-39
2021/03/14 02:23:21;;;;;;;3.40;1.70;;;6.20;78.70;;;;;;5025835;28;20543;-39
2021/03/14 02:25:57;;;;;;;3.07;1.33;;;6.20;78.40;;;;;;5040408;28;20538;-39
2021/03/14 02:28:24;;;;;;;2.83;1.30;;;6.20;78.60;;;;;;5021186;28;20463;-39
2021/03/14 02:30:50;;;;;;;7.80;1.67;;;6.30;78.70;;;;;;4992921;28;20455;-39
2021/03/14 02:33:20;;;;;;;2.80;1.50;;;6.30;78.60;;;;;;5009844;28;20559;-39
2021/03/14 02:35:53;;;;;;;5.17;1.93;;;6.30;78.60;;;;;;5026291;28;20855;-39
2021/03/14 02:38:20;;;;;;;5.33;1.57;;;6.30;78.60;;;;;;5028249;28;20543;-39
2021/03/14 02:40:47;;;;;;;3.40;1.77;;;6.40;78.20;;;;;;5007831;28;20545;-39
2021/03/14 02:43:13;;;;;;;1.87;1.50;;;6.30;78.20;;;;;;4991933;28;20465;-39
2021/03/14 02:45:44;;;;;;;1.70;1.30;;;6.30;78.10;;;;;;5029655;28;20478;-40
2021/03/14 02:48:11;;;;;;;2.70;1.57;;;6.30;78.20;;;;;;5009036;28;20472;-39
2021/03/14 02:50:38;;;;;;;2.53;1.57;;;6.30;78.20;;;;;;5028102;28;20971;-39
2021/03/14 02:53:06;;;;;;;3.00;1.57;;;6.30;78.00;;;;;;5026900;28;20956;-39
2021/03/14 02:55:36;;;;;;;3.10;1.20;;;6.30;78.00;;;;;;5025678;28;20558;-39
2021/03/14 02:58:06;;;;;;;4.60;1.90;;;6.20;78.10;;;;;;5029193;28;20526;-41
2021/03/14 03:00:35;;;;;;;1.90;1.13;;;6.30;78.20;;;;;;5009756;28;20557;-40
2021/03/14 03:03:04;;;;;;;3.03;1.57;;;6.40;78.10;;;;;;5013243;28;20472;-39
2021/03/14 03:05:31;;;;;;;1.93;1.30;;;6.30;77.70;;;;;;5025716;28;20463;-39
2021/03/14 03:07:58;;;;;;;1.40;1.17;;;6.40;77.50;;;;;;5020056;28;20522;-40
2021/03/14 03:10:41;;;;;;;3.17;1.40;;;6.40;77.40;;;;;;5028305;28;20490;-40
2021/03/14 03:13:10;;;;;;;2.57;1.10;;;6.30;77.20;;;;;;5040558;28;20463;-39
2021/03/14 03:15:37;;;;;;;3.70;1.93;;;6.30;76.70;;;;;;4993629;28;20491;-39
2021/03/14 03:18:04;;;;;;;3.83;1.00;;;6.30;76.70;;;;;;5010957;28;20773;-39
2021/03/14 03:20:33;;;;;;;1.93;1.13;;;6.30;76.50;;;;;;5009068;28;20463;-39
2021/03/14 03:23:04;;;;;;;0.80;0.80;;;6.30;76.60;;;;;;5026985;28;20791;-39
2021/03/14 03:25:30;;;;;;;2.93;1.27;;;6.30;76.50;;;;;;5025180;28;20475;-39
2021/03/14 03:27:56;;;;;;;2.60;1.10;;;6.30;76.80;;;;;;5026263;28;20909;-39
2021/03/14 03:30:25;;;;;;;1.70;0.70;;;6.40;76.40;;;;;;5029242;28;20535;-41
2021/03/14 03:32:52;;;;;;;5.07;1.40;;;6.30;76.60;;;;;;5028264;28;20586;-43
2021/03/14 03:35:24;;;;;;;4.20;1.23;;;6.40;77.10;;;;;;5026235;28;20464;-42
2021/03/14 03:37:50;;;;;;;1.53;1.20;;;6.40;77.40;;;;;;5028018;28;20915;-42
2021/03/14 03:40:21;;;;;;;3.30;1.13;;;6.30;77.40;;;;;;5030602;28;21033;-43
2021/03/14 03:42:58;;;;;;;2.57;1.20;;;6.30;77.60;;;;;;5026921;28;20696;-41
2021/03/14 03:45:27;;;;;;;2.57;1.50;;;6.30;77.00;;;;;;5029812;28;20503;-42
2021/03/14 03:47:55;;;;;;;2.10;1.30;;;6.30;77.50;;;;;;5006732;28;20470;-41
2021/03/14 03:50:44;;;;;;;2.30;1.40;;;6.30;77.80;;;;;;5027005;28;20555;-41
2021/03/14 03:53:12;;;;;;;2.77;1.10;;;6.20;78.00;;;;;;5009429;28;20459;-41
2021/03/14 03:55:43;;;;;;;2.57;1.00;;;6.20;77.90;;;;;;5026076;28;20529;-40
2021/03/14 03:58:11;;;;;;;2.77;0.80;;;6.20;77.70;;;;;;5027663;28;20583;-42
2021/03/14 04:00:41;;;;;;;0.90;0.77;;;6.10;77.90;;;;;;5026843;28;20570;-41
2021/03/14 04:03:12;;;;;;;4.97;1.17;;;6.10;77.70;;;;;;5025475;28;20466;-41
2021/03/14 04:05:43;;;;;;;0.63;0.60;;;6.00;77.70;;;;;;5028316;28;20451;-41
2021/03/14 04:08:10;;;;;;;1.80;0.70;;;5.90;77.60;;;;;;5006080;28;20941;-41
2021/03/14 04:10:37;;;;;;;1.27;0.70;;;6.00;77.90;;;;;;5009988;28;20476;-42
2021/03/14 04:13:05;;;;;;;2.57;0.83;;;5.90;77.80;;;;;;5024648;28;20514;-41
2021/03/14 04:15:33;;;;;;;1.83;0.80;;;5.90;77.80;;;;;;5007736;28;20463;-40
2021/03/14 04:18:00;;;;;;;1.87;0.80;;;5.80;77.90;;;;;;5003391;28;20488;-41
2021/03/14 04:20:32;;;;;;;0.93;0.70;;;5.80;77.90;;;;;;5007744;28;20459;-41
2021/03/14 04:23:03;;;;;;;1.73;0.93;;;5.80;78.20;;;;;;5006386;28;21150;-41
2021/03/14 04:25:31;;;;;;;1.00;0.80;;;5.80;78.30;;;;;;5038801;28;20514;-41
2021/03/14 04:27:59;;;;;;;1.13;0.80;;;5.70;78.60;;;;;;5009499;28;20525;-41
2021/03/14 04:30:27;;;;;;;0.60;0.50;;;5.70;78.70;;;;;;5009398;28;20498;-41
2021/03/14 04:32:54;;;;;;;0.90;0.60;;;5.60;78.50;;;;;;5006240;28;20475;-41
2021/03/14 04:35:23;;;;;;;1.40;0.63;;;5.60;78.60;;;;;;4993943;28;20826;-41
2021/03/14 04:37:54;;;;;;;2.50;0.83;;;5.60;78.90;;;;;;5023391;28;20574;-41
2021/03/14 04:40:21;;;;;;;1.40;0.80;;;5.60;78.80;;;;;;5023198;28;21007;-41
2021/03/14 04:42:50;;;;;;;1.20;0.90;;;5.60;79.10;;;;;;5015275;28;20487;-41
2021/03/14 04:45:21;;;;;;;1.20;0.60;;;5.50;79.20;;;;;;5026411;28;20566;-42
2021/03/14 04:47:48;;;;;;;1.07;0.60;;;5.50;79.00;;;;;;4991483;28;20592;-41
2021/03/14 04:50:19;;;;;;;0.80;0.47;;;5.50;78.90;;;;;;5026516;28;20466;-41
2021/03/14 04:52:53;;;;;;;1.13;0.40;;;5.50;79.00;;;;;;5037454;28;21079;-41
2021/03/14 04:55:20;;;;;;;3.37;0.90;;;5.60;79.00;;;;;;5017075;28;20567;-42
2021/03/14 04:57:47;;;;;;;0.93;0.60;;;5.60;78.80;;;;;;4991636;28;20570;-41
2021/03/14 05:00:17;;;;;;;1.50;0.50;;;5.60;79.10;;;;;;5008103;28;21010;-42
2021/03/14 05:02:49;;;;;;;0.50;0.50;;;5.60;78.80;;;;;;5009329;28;20482;-42
2021/03/14 05:05:20;;;;;;;5.00;1.23;;;5.60;78.70;;;;;;5027981;28;20470;-40
2021/03/14 05:07:47;;;;;;;0.40;0.40;;;5.70;78.40;;;;;;5022775;28;20490;-41
2021/03/14 05:10:26;;;;;;;0.77;0.60;;;5.70;78.40;;;;;;5026523;28;20455;-41
2021/03/14 05:12:57;;;;;;;0.70;0.70;;;5.70;78.80;;;;;;5025525;28;20458;-42
2021/03/14 05:15:23;;;;;;;0.93;0.80;;;5.70;78.80;;;;;;5033387;28;20525;-41
2021/03/14 05:17:54;;;;;;;1.50;0.90;;;5.70;78.40;;;;;;5027449;28;20521;-41
2021/03/14 05:20:21;;;;;;;1.77;1.03;;;5.70;78.10;;;;;;5008826;28;20510;-42
2021/03/14 05:22:53;;;;;;;2.17;0.90;;;5.70;77.90;;;;;;5021801;28;20511;-41
2021/03/14 05:25:20;;;;;;;1.00;0.70;;;5.70;78.20;;;;;;5008152;28;20467;-41
2021/03/14 05:27:53;;;;;;;0.87;0.87;;;5.70;78.00;;;;;;5026624;28;20487;-40
2021/03/14 05:30:27;;;;;;;1.97;0.87;;;5.70;77.90;;;;;;5013806;28;20553;-41
2021/03/14 05:32:56;;;;;;;1.20;1.10;;;5.80;78.30;;;;;;5009421;28;20494;-41
2021/03/14 05:35:26;;;;;;;1.30;0.83;;;5.70;78.40;;;;;;5021604;28;20463;-42
2021/03/14 05:37:54;;;;;;;2.43;1.30;;;5.80;78.10;;;;;;5025339;28;20574;-42
2021/03/14 05:40:23;;;;;;;1.43;0.93;;;5.70;78.10;;;;;;5028167;28;20475;-41
2021/03/14 05:42:49;;;;;;;1.27;1.17;;;5.70;78.70;;;;;;5036340;28;20448;-42
2021/03/14 05:45:18;;;;;;;2.50;1.10;;;5.70;78.70;;;;;;5029998;28;20590;-41
2021/03/14 05:47:45;;;;;;;1.90;0.97;;;5.70;78.70;;;;;;5011383;28;20533;-41
2021/03/14 05:50:16;;;;;;;1.80;1.50;;;5.70;78.20;;;;;;5026728;28;20794;-41
2021/03/14 05:52:44;;;;;;;2.20;1.30;;;5.70;78.10;;;;;;5024683;28;20814;-41
2021/03/14 05:55:17;;;;;;;3.27;1.40;;;5.70;78.00;;;;;;5027488;28;20953;-42
2021/03/14 05:57:47;;;;;;;2.30;1.77;;;5.70;77.90;;;;;;5016122;28;20582;-42
2021/03/14 06:00:23;;;;;;;1.37;1.27;;;5.70;77.90;;;;;;5027440;28;20554;-41
2021/03/14 06:02:57;;;;;;;1.53;1.33;;;5.60;77.90;;;;;;5029290;28;20451;-41
2021/03/14 06:05:25;;;;;;;2.43;1.10;;;5.60;77.90;;;;;;5028681;28;20461;-41
2021/03/14 06:07:52;;;;;;;1.93;1.70;;;5.70;77.70;;;;;;5009324;28;20523;-42
2021/03/14 06:10:19;;;;;;;2.37;1.63;;;5.60;77.70;;;;;;5009318;28;20862;-41
2021/03/14 06:12:50;;;;;;;5.47;1.53;;;5.60;77.60;;;;;;5030145;28;20463;-41
2021/03/14 06:15:17;;;;;;;1.80;1.70;;;5.60;77.70;;;;;;5025648;28;20459;-40
2021/03/14 06:17:44;;;;;;;2.17;1.97;;;5.70;77.30;;;;;;5026370;28;20685;-42
2021/03/14 06:20:36;;;;;;;2.60;1.30;;;5.60;77.30;;;;;;5027265;28;20503;-40
2021/03/14 06:23:14;;;;;;;3.43;1.60;;;5.70;76.60;;;;;;5019686;28;20467;-41
2021/03/14 06:25:45;;;;;;;3.93;1.53;;;5.70;76.70;;;;;;5012141;28;20467;-41
2021/03/14 06:28:13;;;;;;;9.83;2.13;;;5.60;76.40;;;;;;5027017;28;20486;-44
2021/03/14 06:30:40;;;;;;;3.27;1.80;;;5.60;76.70;;;;;;5015743;28;20448;-40
2021/03/14 06:33:09;;;;;;;5.93;2.53;;;5.50;77.10;;;;;;5031114;28;20483;-41
2021/03/14 06:35:42;;;;;;;4.30;1.80;;;5.50;77.00;;;;;;5028821;28;20455;-40
2021/03/14 06:38:31;;;;;;;3.90;1.60;;;5.50;77.20;;;;;;5030133;28;20562;-41
2021/03/14 06:41:07;;;;;;;1.83;1.60;;;5.50;77.70;;;;;;5020414;28;20955;-42
2021/03/14 06:43:35;;;;;;;1.67;1.20;;;5.40;77.70;;;;;;5046277;28;20491;-41
2021/03/14 06:46:02;;;;;;;3.47;1.67;;;5.50;78.00;;;;;;5028829;28;20971;-41
2021/03/14 06:48:29;;;;;;;2.13;2.03;;;5.50;77.60;;;;;;5028244;28;20952;-41
2021/03/14 06:50:55;;;;;;;3.33;1.90;;;5.60;77.70;;;;;;5010225;28;20559;-40
2021/03/14 06:53:24;;;;;;;4.63;1.60;;;5.60;77.70;;;;;;4990595;28;20556;-41
2021/03/14 06:55:52;;;;;;;1.83;1.63;;;5.60;77.60;;;;;;5025477;28;20546;-42
2021/03/14 06:58:28;;;;;;;4.03;1.70;;;5.70;77.40;;;;;;5020716;28;21064;-42
2021/03/14 07:01:21;;;;;;;5.67;1.50;;;5.80;77.00;;;;;;5043791;28;20549;-41
2021/03/14 07:03:52;;;;;;;5.13;2.13;;;5.80;77.00;;;;;;5023579;28;20499;-42
2021/03/14 07:06:23;;;;;;;3.60;2.70;;;5.90;76.50;;;;;;5027491;28;20809;-41
2021/03/14 07:08:55;;;;;;;4.00;2.53;;;5.90;76.60;;;;;;5026648;28;20878;-41
2021/03/14 07:11:38;;;;;;;10.73;5.30;;;6.00;76.70;;;;;;5025950;28;20474;-41
2021/03/14 07:14:13;;;;;;;7.93;2.23;;;6.00;76.20;;;;;;5029135;28;20532;-41
2021/03/14 07:16:57;;;;;;;3.83;1.40;;;6.00;76.10;;;;;;5029400;28;21004;-42
2021/03/14 07:19:26;;;;;;;5.10;2.10;;;6.10;75.90;;;;;;5026305;28;20948;-41
2021/03/14 07:21:59;;;;;;;1.80;1.70;;;6.10;75.20;;;;;;5009154;28;20460;-41
2021/03/14 07:24:37;;;;;;;7.97;4.40;;;6.10;76.00;;;;;;5024693;28;20517;-43
2021/03/14 07:27:05;;;;;;;2.40;1.53;;;6.10;74.80;;;;;;5027091;28;20554;-41
2021/03/14 07:29:35;;;;;;;5.23;2.53;;;6.10;75.00;;;;;;5027595;28;20987;-41
2021/03/14 07:32:04;;;;;;;1.97;1.77;;;6.20;75.20;;;;;;5010349;28;20773;-41
2021/03/14 07:34:31;;;;;;;5.23;2.33;;;6.20;74.40;;;;;;5020395;28;20967;-41
2021/03/14 07:36:58;;;;;;;7.43;2.10;;;6.20;75.20;;;;;;5028791;28;20487;-41
2021/03/14 07:39:25;;;;;;;4.47;2.20;;;6.30;75.30;;;;;;5012486;28;20498;-42
2021/03/14 07:41:51;;;;;;;3.00;1.40;;;6.40;74.80;;;;;;5028056;28;20525;-40
2021/03/14 07:44:20;;;;;;;4.67;1.87;;;6.50;74.30;;;;;;5024936;28;20528;-41
2021/03/14 07:46:47;;;;;;;5.63;1.80;;;6.60;74.00;;;;;;4992722;28;20490;-41
2021/03/14 07:49:17;;;;;;;4.60;2.30;;;6.70;73.60;;;;;;5028432;28;20830;-41
2021/03/14 07:51:47;;;;;;;3.83;2.30;;;6.80;73.40;;;;;;5030863;28;20551;-42
2021/03/14 07:54:28;;;;;;;7.47;2.80;;;6.90;72.70;;;;;;5026228;28;20954;-41
2021/03/14 07:57:01;;;;;;;1.43;1.10;;;6.90;72.50;;;;;;5032044;28;20570;-41
2021/03/14 07:59:30;;;;;;;3.23;1.27;;;7.00;71.40;;;;;;5011560;28;20897;-41
2021/03/14 08:02:18;;;;;;;4.30;2.17;;;7.00;71.60;;;;;;5008392;28;20472;-42
2021/03/14 08:04:57;;;;;;;7.13;2.03;;;7.00;72.20;;;;;;5031089;28;20585;-42
2021/03/14 08:07:32;;;;;;;3.23;2.10;;;7.00;72.20;;;;;;5023892;28;20475;-42
2021/03/14 08:09:59;;;;;;;3.97;1.87;;;7.00;71.90;;;;;;5029193;28;20451;-42
2021/03/14 08:12:48;;;;;;;2.50;1.60;;;7.00;72.50;;;;;;5024525;28;20472;-41
2021/03/14 08:15:26;;;;;;;3.43;1.70;;;7.00;73.10;;;;;;5028280;28;20483;-41
2021/03/14 08:17:54;;;;;;;2.67;1.30;;;7.00;72.50;;;;;;5026713;28;20498;-42
2021/03/14 08:20:41;;;;;;;3.03;1.80;;;7.00;72.00;;;;;;5028963;28;20478;-41
2021/03/14 08:23:09;;;;;;;2.60;1.30;;;7.00;72.20;;;;;;5027254;28;20831;-41
2021/03/14 08:25:49;;;;;;;2.90;1.67;;;7.00;72.40;;;;;;5010415;28;20465;-42
2021/03/14 08:28:27;;;;;;;3.70;1.73;;;7.10;72.70;;;;;;5030085;28;20467;-42
2021/03/14 08:30:58;;;;;;;5.90;1.33;;;7.30;71.70;;;;;;5027014;28;20529;-41
2021/03/14 08:33:31;;;;;;;5.53;1.90;;;7.40;71.20;;;;;;5025812;28;20554;-41
2021/03/14 08:36:04;;;;;;;4.90;2.10;;;7.50;71.10;;;;;;5027790;28;20476;-42
2021/03/14 08:38:52;;;;;;;3.60;1.60;;;7.80;69.70;;;;;;5026810;28;21057;-42
2021/03/14 08:41:57;;;;;;;4.23;2.53;;;8.10;68.70;;;;;;5028190;28;20470;-42
2021/03/14 08:44:49;;;;;;;2.30;1.60;;;8.20;68.40;;;;;;5024639;28;20547;-42
2021/03/14 08:47:22;;;;;;;6.27;2.00;;;8.30;67.30;;;;;;5020343;28;20518;-41
2021/03/14 08:49:52;;;;;;;2.50;1.97;;;8.30;68.40;;;;;;5026293;28;20521;-42
2021/03/14 08:52:20;;;;;;;3.13;1.30;;;8.50;66.90;;;;;;5027008;28;20531;-42
2021/03/14 08:54:50;;;;;;;6.53;1.93;;;8.60;66.70;;;;;;5042929;28;20463;-42
2021/03/14 08:57:18;;;;;;;5.67;1.90;;;8.70;65.60;;;;;;5007782;28;21012;-42
2021/03/14 08:59:46;;;;;;;2.60;1.83;;;8.70;65.20;;;;;;5008106;28;20474;-42
2021/03/14 09:02:24;;;;;;;7.33;2.20;;;8.70;64.80;;;;;;5024967;28;20487;-41
2021/03/14 09:04:51;;;;;;;2.53;1.43;;;8.60;64.60;;;;;;5030691;28;20948;-42
2021/03/14 09:07:21;;;;;;;3.00;1.90;;;8.50;65.00;;;;;;5030481;28;20844;-41
2021/03/14 09:09:47;;;;;;;3.70;2.00;;;8.50;64.70;;;;;;5009979;28;20459;-41
2021/03/14 09:12:16;;;;;;;5.10;2.37;;;8.50;64.70;;;;;;5027153;28;20492;-42
2021/03/14 09:14:43;;;;;;;6.40;2.23;;;8.50;64.70;;;;;;5025679;28;20525;-41
2021/03/14 09:17:11;;;;;;;3.07;1.63;;;8.50;65.30;;;;;;5008002;28;20490;-42
2021/03/14 09:19:45;;;;;;;8.83;2.30;;;8.40;65.70;;;;;;5029959;28;20903;-41
2021/03/14 09:22:26;;;;;;;3.60;1.90;;;8.40;65.70;;;;;;5007528;28;20523;-41
2021/03/14 09:25:02;;;;;;;5.37;2.73;;;8.30;66.00;;;;;;5041262;28;20494;-42
2021/03/14 09:27:37;;;;;;;3.63;2.40;;;8.30;65.80;;;;;;5021943;28;20463;-42
2021/03/14 09:30:18;;;;;;;1.63;1.53;;;8.20;65.40;;;;;;5023607;28;20844;-42
2021/03/14 09:32:53;;;;;;;3.70;1.90;;;8.10;65.70;;;;;;5027059;28;20535;-41
2021/03/14 09:35:30;;;;;;;14.80;7.80;;;8.10;66.50;;;;;;5030158;28;20459;-41
2021/03/14 09:38:09;;;;;;;9.80;2.30;;;8.20;67.30;;;;;;5025657;28;20491;-40
2021/03/14 09:40:43;;;;;;;2.37;2.17;;;8.20;66.60;;;;;;5027668;28;20479;-41
2021/03/14 09:43:22;;;;;;;3.97;2.20;;;8.30;66.10;;;;;;5021212;28;20890;-41
2021/03/14 09:45:54;;;;;;;3.83;2.20;;;8.40;66.40;;;;;;5025162;28;20471;-41
2021/03/14 09:48:21;;;;;;;5.77;2.37;;;8.60;66.00;;;;;;5024501;28;20995;-41
2021/03/14 09:50:57;;;;;;;3.50;2.00;;;8.70;65.80;;;;;;5028619;28;20495;-40
2021/03/14 09:53:27;;;;;;;3.53;2.20;;;8.80;65.40;;;;;;5019053;28;20503;-40
2021/03/14 09:55:56;;;;;;;5.57;1.90;;;8.80;64.90;;;;;;5023638;28;20460;-41
2021/03/14 09:58:25;;;;;;;6.80;3.27;;;8.90;64.70;;;;;;5029519;28;20585;-40
2021/03/14 10:00:53;;;;;;;4.80;1.90;;;9.00;65.30;;;;;;5025217;28;20555;-41
2021/03/14 10:03:24;;;;;;;5.80;2.00;;;8.90;63.80;;;;;;5024387;28;20459;-41
2021/03/14 10:05:56;;;;;;;2.70;2.10;;;8.80;64.20;;;;;;5024583;28;21034;-41
2021/03/14 10:08:29;;;;;;;4.43;3.37;;;8.70;64.60;;;;;;5015078;28;20459;-41
2021/03/14 10:11:01;;;;;;;2.77;1.67;;;8.60;64.90;;;;;;5025714;28;20553;-41
2021/03/14 10:13:35;;;;;;;3.40;2.00;;;8.60;65.50;;;;;;5027788;28;20484;-41
2021/03/14 10:16:09;;;;;;;5.80;2.63;;;8.60;64.60;;;;;;5026054;28;20491;-41
2021/03/14 10:18:44;;;;;;;3.17;2.10;;;8.60;65.10;;;;;;5027855;28;20918;-41
2021/03/14 10:21:25;;;;;;;2.80;2.20;;;8.60;65.20;;;;;;5026525;28;20456;-41
2021/03/14 10:24:12;;;;;;;3.40;1.80;;;8.60;65.90;;;;;;5026509;28;20526;-41
2021/03/14 10:26:56;;;;;;;5.17;2.07;;;8.60;65.20;;;;;;5010332;28;20464;-40
2021/03/14 10:29:32;;;;;;;3.00;1.80;;;8.60;65.90;;;;;;5023641;28;20471;-41
2021/03/14 10:32:01;;;;;;;3.77;2.27;;;8.60;65.70;;;;;;5029771;28;21135;-41
2021/03/14 10:34:27;;;;;;;6.63;3.10;;;8.60;66.10;;;;;;5012647;28;20466;-41
2021/03/14 10:36:54;;;;;;;5.20;2.80;;;8.60;65.90;;;;;;5029491;28;20491;-41
2021/03/14 10:39:25;;;;;;;4.27;2.20;;;8.50;66.40;;;;;;5037947;28;20456;-41
2021/03/14 10:41:52;;;;;;;3.00;1.83;;;8.50;66.60;;;;;;5033313;28;20662;-41
2021/03/14 10:44:23;;;;;;;2.03;1.80;;;8.50;66.50;;;;;;5013070;28;20484;-41
2021/03/14 10:46:52;;;;;;;4.60;1.73;;;8.40;66.30;;;;;;5029604;28;20467;-41
2021/03/14 10:49:30;;;;;;;3.60;2.67;;;8.30;66.60;;;;;;5012949;28;20464;-40
2021/03/14 10:51:59;;;;;;;2.27;1.67;;;8.20;66.80;;;;;;5029331;28;20474;-42
2021/03/14 10:54:36;;;;;;;3.13;1.97;;;8.20;67.20;;;;;;5031743;28;20490;-42
2021/03/14 10:57:20;;;;;;;4.67;1.60;;;8.10;67.10;;;;;;5019193;28;20495;-42
2021/03/14 10:59:47;;;;;;;3.00;1.80;;;8.00;67.70;;;;;;4998174;28;20452;-41
2021/03/14 11:02:36;;;;;;;1.93;1.73;;;8.10;68.00;;;;;;5028587;28;20447;-42
2021/03/14 11:05:03;;;;;;;6.50;4.30;;;8.10;68.20;;;;;;5015237;28;20448;-42
2021/03/14 11:07:32;;;;;;;4.50;2.00;;;8.10;68.60;;;;;;5030628;28;20447;-42
2021/03/14 11:10:11;;;;;;;2.50;2.03;;;8.10;69.20;;;;;;4999130;28;20451;-42
2021/03/14 11:12:40;;;;;;;2.87;2.20;;;8.10;69.00;;;;;;5030474;28;20455;-41
2021/03/14 11:15:32;;;;;;;4.70;2.73;;;8.10;69.00;;;;;;5028125;28;20471;-42
2021/03/14 11:18:04;;;;;;;2.53;1.73;;;8.10;69.30;;;;;;5023585;28;20481;-41
2021/03/14 11:20:34;;;;;;;4.73;1.77;;;8.10;69.30;;;;;;5022507;28;20472;-42
2021/03/14 11:23:02;;;;;;;5.63;2.20;;;8.10;69.30;;;;;;5026897;28;21035;-40
2021/03/14 11:25:29;;;;;;;2.20;1.73;;;8.20;68.80;;;;;;5028730;28;20538;-41
2021/03/14 11:27:58;;;;;;;5.77;2.10;;;8.10;67.90;;;;;;5029895;28;20479;-41
2021/03/14 11:30:27;;;;;;;4.27;1.53;;;8.00;68.10;;;;;;5020191;28;20513;-42
2021/03/14 11:32:54;;;;;;;1.30;1.20;;;8.00;69.00;;;;;;5029004;28;20550;-41
2021/03/14 11:35:28;;;;;;;0.83;0.83;;;8.10;68.00;;;;;;5033778;28;20791;-41
2021/03/14 11:37:55;;;;;;;1.40;1.00;;;8.10;68.30;;;;;;5013520;28;20550;-41
2021/03/14 11:40:21;;;;;;;1.70;1.57;;;8.00;68.00;;;;;;5010221;28;20479;-40
2021/03/14 11:42:47;;;;;;;5.47;1.83;;;8.00;68.80;;;;;;4997375;28;20531;-41
2021/03/14 11:45:15;;;;;;;4.27;1.93;;;8.00;69.40;;;;;;5014035;28;20535;-41
2021/03/14 11:47:42;;;;;;;4.50;2.80;;;8.00;70.10;;;;;;5011092;28;20451;-41
2021/03/14 11:50:11;;;;;;;4.37;3.43;;;8.10;70.60;;;;;;5045862;28;20471;-40
2021/03/14 11:52:37;;;;;;;3.60;3.30;;;8.10;70.70;;;;;;5029344;28;21040;-41
2021/03/14 11:55:10;;;;;;;4.13;2.63;;;8.10;71.10;;;;;;5027610;28;20546;-41
2021/03/14 11:57:37;;;;;;;3.20;2.33;;;8.10;69.50;;;;;;5010650;28;20479;-40
2021/03/14 12:00:04;;;;;;;2.57;1.73;;;8.10;70.30;;;;;;5009804;28;20956;-41
2021/03/14 12:02:31;;;;;;;5.23;2.47;;;8.10;70.20;;;;;;5025475;28;20485;-41
2021/03/14 12:04:58;;;;;;;2.60;1.50;;;8.20;70.60;;;;;;5028291;28;20487;-41
2021/03/14 12:07:25;;;;;;;3.17;1.73;;;8.20;70.70;;;;;;5007886;28;20464;-41
2021/03/14 12:09:52;;;;;;;3.00;1.60;;;8.30;69.50;;;;;;5005721;28;20871;-41
2021/03/14 12:12:19;;;;;;;1.93;1.70;;;8.30;69.50;;;;;;5027575;28;20546;-41
2021/03/14 12:14:45;;;;;;;3.33;2.30;;;8.30;69.40;;;;;;5013416;28;20562;-41
2021/03/14 12:17:12;;;;;;;2.83;1.40;;;8.50;69.90;;;;;;5026318;28;20837;-41
2021/03/14 12:19:38;;;;;;;1.80;1.70;;;8.60;68.70;;;;;;5025606;28;20961;-41
2021/03/14 12:22:04;;;;;;;2.00;1.80;;;8.80;68.40;;;;;;5008234;28;20538;-40
2021/03/14 12:24:34;;;;;;;6.03;2.17;;;9.00;67.50;;;;;;5029403;28;20873;-41
2021/03/14 12:27:08;;;;;;;2.10;1.80;;;9.20;67.40;;;;;;5015268;28;20554;-42
2021/03/14 12:29:39;;;;;;;3.73;2.30;;;9.40;68.00;;;;;;5028346;28;20467;-41
2021/03/14 12:32:07;;;;;;;2.33;2.17;;;9.50;66.70;;;;;;5029636;28;20567;-41
2021/03/14 12:34:34;;;;;;;3.80;2.60;;;9.60;66.20;;;;;;5026575;28;20503;-40
2021/03/14 12:37:04;;;;;;;2.27;1.70;;;9.50;65.80;;;;;;5024765;28;20623;-42
2021/03/14 12:39:35;;;;;;;2.10;1.90;;;9.50;66.20;;;;;;5028206;28;20873;-41
2021/03/14 12:42:04;;;;;;;2.70;2.40;;;9.50;66.50;;;;;;5030330;28;20535;-41
2021/03/14 12:44:30;;;;;;;1.83;1.73;;;9.40;66.80;;;;;;5027268;28;20951;-41
2021/03/14 12:46:56;;;;;;;1.37;1.27;;;9.40;67.20;;;;;;5011714;28;20543;-42
2021/03/14 12:49:33;;;;;;;1.63;1.53;;;9.40;65.90;;;;;;5027791;28;20818;-42
2021/03/14 12:52:02;;;;;;;2.53;1.80;;;9.40;66.50;;;;;;5009077;28;20470;-41
2021/03/14 12:54:28;;;;;;;2.23;1.80;;;9.40;66.40;;;;;;5028182;28;20492;-42
2021/03/14 12:56:58;;;;;;;1.20;1.10;;;9.40;67.50;;;;;;5026882;28;20521;-42
2021/03/14 12:59:28;;;;;;;2.03;1.50;;;9.60;66.40;;;;;;5025051;28;20541;-42
2021/03/14 13:01:56;;;;;;;1.70;1.60;;;9.70;66.30;;;;;;5023089;28;20544;-42
2021/03/14 13:04:22;;;;;;;2.20;1.67;;;9.70;66.70;;;;;;5002156;28;20461;-41
2021/03/14 13:06:51;;;;;;;1.90;1.07;;;9.90;66.60;;;;;;5027903;28;20459;-41
2021/03/14 13:09:17;;;;;;;1.60;1.50;;;9.90;66.60;;;;;;5013551;28;20443;-41
2021/03/14 13:11:43;;;;;;;1.63;1.53;;;9.90;66.20;;;;;;5025279;28;20471;-41
2021/03/14 13:14:12;;;;;;;2.53;1.73;;;10.00;65.80;;;;;;5010325;28;20456;-41
2021/03/14 13:16:39;;;;;;;3.30;1.63;;;10.00;66.20;;;;;;5027952;28;20470;-42